PWSweather.com
Personal Weather Stations
Station Observations
TAIGUM
Cashmere, BrisbaneAU 4500

CashmereBrisbaneAU 4500

Lat: -27.2949692, Lon: 152.9343974

Elevation: 125

Station Type: Vantage Pro 2

http://www.brisbaneliveweather.com

Latest ConditionsUpdated 4:15:02 PM GMT+10:10 Wednesday, Oct 22, 2014
Currently Today's Max Today's Min Today's Average
Temperature 72.1°F22.3°C 79.3°F26.3°C 61.2°F16.2°C 71.3°F21.8°C
Dew Point 56.5°F13.6°C 59.0°F15.0°C 54.7°F12.6°C 56.7°F13.7°C
Winds 7.0 mph NE11.3 kmh NE 10.0 mph NNE16.1 kmh NNE - 4.6 mph 7.4 kmh
Wind Gusts 9.0 mph14.5 kmh 21.0 mph33.8 kmh - -
Humidity 58% 83% 45% 61%
Pressure 30.18 in1022.0 mb 30.30 in1026.1 mb 30.17 in1021.7 mb -
Hour Temp Dew Point Humidity Winds Wind Gusts Pressure Precip Precip Rate Daily Precip Total
04:15 PM 72.1°F22.3°C 56.5°F13.6°C 58% 7.0 mph NE11.3 kmh NE 9.0 mph14.5 kmh 30.18 in1022.0 mb 0.00 in0.0 mm 0.00 in/hr0.0 mm/hr 0.00 in0.0 mm
04:00 PM 73.4°F23.0°C 56.3°F13.5°C 55% 6.0 mph NE9.7 kmh NE 14.0 mph22.5 kmh 30.18 in1022.0 mb 0.00 in0.0 mm 0.00 in/hr0.0 mm/hr 0.00 in0.0 mm
03:45 PM 75.7°F24.3°C 57.4°F14.1°C 53% 7.0 mph NE11.3 kmh NE 7.0 mph11.3 kmh 30.17 in1021.7 mb 0.00 in0.0 mm 0.00 in/hr0.0 mm/hr 0.00 in0.0 mm
03:30 PM 74.7°F23.7°C 56.5°F13.6°C 53% 7.0 mph NE11.3 kmh NE 14.0 mph22.5 kmh 30.18 in1022.0 mb 0.00 in0.0 mm 0.00 in/hr0.0 mm/hr 0.00 in0.0 mm
03:15 PM 73.6°F23.1°C 56.3°F13.5°C 55% 7.0 mph NE11.3 kmh NE 9.0 mph14.5 kmh 30.17 in1021.7 mb 0.00 in0.0 mm 0.00 in/hr0.0 mm/hr 0.00 in0.0 mm
03:00 PM 74.7°F23.7°C 56.8°F13.8°C 54% 9.0 mph NNE14.5 kmh NNE 13.0 mph20.9 kmh 30.17 in1021.7 mb 0.00 in0.0 mm 0.00 in/hr0.0 mm/hr 0.00 in0.0 mm
02:45 PM 74.5°F23.6°C 56.3°F13.5°C 53% 10.0 mph NE16.1 kmh NE 12.0 mph19.3 kmh 30.17 in1021.7 mb 0.00 in0.0 mm 0.00 in/hr0.0 mm/hr 0.00 in0.0 mm
02:30 PM 76.6°F24.8°C 57.2°F14.0°C 51% 7.0 mph NNE11.3 kmh NNE 15.0 mph24.1 kmh 30.17 in1021.7 mb 0.00 in0.0 mm 0.00 in/hr0.0 mm/hr 0.00 in0.0 mm
02:15 PM 76.5°F24.7°C 57.9°F14.4°C 53% 8.0 mph NE12.9 kmh NE 13.0 mph20.9 kmh 30.18 in1022.0 mb 0.00 in0.0 mm 0.00 in/hr0.0 mm/hr 0.00 in0.0 mm
02:00 PM 77.7°F25.4°C 58.3°F14.6°C 51% 10.0 mph NE16.1 kmh NE 14.0 mph22.5 kmh 30.18 in1022.0 mb 0.00 in0.0 mm 0.00 in/hr0.0 mm/hr 0.00 in0.0 mm
01:45 PM 78.1°F25.6°C 59.0°F15.0°C 52% 8.0 mph NNE12.9 kmh NNE 15.0 mph24.1 kmh 30.19 in1022.4 mb 0.00 in0.0 mm 0.00 in/hr0.0 mm/hr 0.00 in0.0 mm
01:30 PM 78.1°F25.6°C 56.1°F13.4°C 47% 9.0 mph NE14.5 kmh NE 12.0 mph19.3 kmh 30.19 in1022.4 mb 0.00 in0.0 mm 0.00 in/hr0.0 mm/hr 0.00 in0.0 mm
01:15 PM 78.8°F26.0°C 55.6°F13.1°C 45% 10.0 mph NNE16.1 kmh NNE 18.0 mph29.0 kmh 30.19 in1022.4 mb 0.00 in0.0 mm 0.00 in/hr0.0 mm/hr 0.00 in0.0 mm
01:00 PM 78.6°F25.9°C 57.4°F14.1°C 48% 7.0 mph NE11.3 kmh NE 12.0 mph19.3 kmh 30.20 in1022.7 mb 0.00 in0.0 mm 0.00 in/hr0.0 mm/hr 0.00 in0.0 mm
12:45 PM 75.6°F24.2°C 56.7°F13.7°C 52% 8.0 mph NE12.9 kmh NE 19.0 mph30.6 kmh 30.20 in1022.7 mb 0.00 in0.0 mm 0.00 in/hr0.0 mm/hr 0.00 in0.0 mm
12:30 PM 79.3°F26.3°C 58.5°F14.7°C 49% 7.0 mph NE11.3 kmh NE 21.0 mph33.8 kmh 30.21 in1023.0 mb 0.00 in0.0 mm 0.00 in/hr0.0 mm/hr 0.00 in0.0 mm
12:15 PM 78.6°F25.9°C 56.7°F13.7°C 47% 7.0 mph NE11.3 kmh NE 14.0 mph22.5 kmh 30.22 in1023.4 mb 0.00 in0.0 mm 0.00 in/hr0.0 mm/hr 0.00 in0.0 mm
12:00 PM 76.5°F24.7°C 57.6°F14.2°C 52% 5.0 mph NE8.0 kmh NE 11.0 mph17.7 kmh 30.22 in1023.4 mb 0.00 in0.0 mm 0.00 in/hr0.0 mm/hr 0.00 in0.0 mm
11:45 AM 77.0°F25.0°C 56.3°F13.5°C 49% 9.0 mph NE14.5 kmh NE 12.0 mph19.3 kmh 30.23 in1023.7 mb 0.00 in0.0 mm 0.00 in/hr0.0 mm/hr 0.00 in0.0 mm
11:30 AM 76.5°F24.7°C 57.0°F13.9°C 51% 8.0 mph NE12.9 kmh NE 14.0 mph22.5 kmh 30.24 in1024.0 mb 0.00 in0.0 mm 0.00 in/hr0.0 mm/hr 0.00 in0.0 mm
11:15 AM 73.2°F22.9°C 58.5°F14.7°C 60% 7.0 mph ENE11.3 kmh ENE 11.0 mph17.7 kmh 30.25 in1024.4 mb 0.00 in0.0 mm 0.00 in/hr0.0 mm/hr 0.00 in0.0 mm
11:00 AM 76.3°F24.6°C 55.0°F12.8°C 48% 4.0 mph E6.4 kmh E 5.0 mph8.0 kmh 30.24 in1024.0 mb 0.00 in0.0 mm 0.00 in/hr0.0 mm/hr 0.00 in0.0 mm
10:45 AM 76.5°F24.7°C 55.4°F13.0°C 48% 4.0 mph SE6.4 kmh SE 7.0 mph11.3 kmh 30.25 in1024.4 mb 0.00 in0.0 mm 0.00 in/hr0.0 mm/hr 0.00 in0.0 mm
10:30 AM 75.2°F24.0°C 54.7°F12.6°C 49% 5.0 mph E8.0 kmh E 13.0 mph20.9 kmh 30.25 in1024.4 mb 0.00 in0.0 mm 0.00 in/hr0.0 mm/hr 0.00 in0.0 mm
10:15 AM 74.8°F23.8°C 56.1°F13.4°C 52% 5.0 mph ESE8.0 kmh ESE 8.0 mph12.9 kmh 30.26 in1024.7 mb 0.00 in0.0 mm 0.00 in/hr0.0 mm/hr 0.00 in0.0 mm
10:00 AM 73.0°F22.8°C 55.4°F13.0°C 54% 5.0 mph E8.0 kmh E 12.0 mph19.3 kmh 30.27 in1025.1 mb 0.00 in0.0 mm 0.00 in/hr0.0 mm/hr 0.00 in0.0 mm
09:45 AM 73.0°F22.8°C 55.9°F13.3°C 55% 3.0 mph E4.8 kmh E 5.0 mph8.0 kmh 30.27 in1025.1 mb 0.00 in0.0 mm 0.00 in/hr0.0 mm/hr 0.00 in0.0 mm
09:30 AM 73.8°F23.2°C 55.9°F13.3°C 54% 5.0 mph E8.0 kmh E 8.0 mph12.9 kmh 30.27 in1025.1 mb 0.00 in0.0 mm 0.00 in/hr0.0 mm/hr 0.00 in0.0 mm
09:15 AM 72.9°F22.7°C 56.1°F13.4°C 56% 4.0 mph E6.4 kmh E 11.0 mph17.7 kmh 30.27 in1025.1 mb 0.00 in0.0 mm 0.00 in/hr0.0 mm/hr 0.00 in0.0 mm
09:00 AM 72.9°F22.7°C 55.8°F13.2°C 55% 3.0 mph SSE4.8 kmh SSE 8.0 mph12.9 kmh 30.27 in1025.1 mb 0.00 in0.0 mm 0.00 in/hr0.0 mm/hr 0.00 in0.0 mm
08:45 AM 73.4°F23.0°C 57.2°F14.0°C 57% 3.0 mph ESE4.8 kmh ESE 6.0 mph9.7 kmh 30.28 in1025.4 mb 0.00 in0.0 mm 0.00 in/hr0.0 mm/hr 0.00 in0.0 mm
08:30 AM 70.9°F21.6°C 58.1°F14.5°C 64% 3.0 mph E4.8 kmh E 5.0 mph8.0 kmh 30.28 in1025.4 mb 0.00 in0.0 mm 0.00 in/hr0.0 mm/hr 0.00 in0.0 mm
08:15 AM 68.7°F20.4°C 57.4°F14.1°C 67% 4.0 mph ESE6.4 kmh ESE 8.0 mph12.9 kmh 30.28 in1025.4 mb 0.00 in0.0 mm 0.00 in/hr0.0 mm/hr 0.00 in0.0 mm
08:00 AM 68.0°F20.0°C 57.9°F14.4°C 70% 4.0 mph ESE6.4 kmh ESE 11.0 mph17.7 kmh 30.28 in1025.4 mb 0.00 in0.0 mm 0.00 in/hr0.0 mm/hr 0.00 in0.0 mm
07:45 AM 68.5°F20.3°C 57.9°F14.4°C 69% 4.0 mph SE6.4 kmh SE 6.0 mph9.7 kmh 30.27 in1025.1 mb 0.00 in0.0 mm 0.00 in/hr0.0 mm/hr 0.00 in0.0 mm
07:30 AM 68.2°F20.1°C 58.1°F14.5°C 70% 3.0 mph S4.8 kmh S 2.0 mph3.2 kmh 30.27 in1025.1 mb 0.00 in0.0 mm 0.00 in/hr0.0 mm/hr 0.00 in0.0 mm
07:15 AM 66.4°F19.1°C 57.6°F14.2°C 73% 3.0 mph S4.8 kmh S 11.0 mph17.7 kmh 30.27 in1025.1 mb 0.00 in0.0 mm 0.00 in/hr0.0 mm/hr 0.00 in0.0 mm
07:00 AM 66.2°F19.0°C 57.7°F14.3°C 74% 2.0 mph S3.2 kmh S 6.0 mph9.7 kmh 30.26 in1024.7 mb 0.00 in0.0 mm 0.00 in/hr0.0 mm/hr 0.00 in0.0 mm
06:45 AM 64.0°F17.8°C 57.0°F13.9°C 78% 1.0 mph S1.6 kmh S 1.0 mph1.6 kmh 30.27 in1025.1 mb 0.00 in0.0 mm 0.00 in/hr0.0 mm/hr 0.00 in0.0 mm
06:30 AM 63.3°F17.4°C 56.3°F13.5°C 78% 2.0 mph SE3.2 kmh SE 5.0 mph8.0 kmh 30.26 in1024.7 mb 0.00 in0.0 mm 0.00 in/hr0.0 mm/hr 0.00 in0.0 mm
06:15 AM 63.0°F17.2°C 56.7°F13.7°C 80% 2.0 mph S3.2 kmh S 6.0 mph9.7 kmh 30.26 in1024.7 mb 0.00 in0.0 mm 0.00 in/hr0.0 mm/hr 0.00 in0.0 mm
06:00 AM 61.7°F16.5°C 56.5°F13.6°C 83% Calm Calm 1.0 mph1.6 kmh 30.26 in1024.7 mb 0.00 in0.0 mm 0.00 in/hr0.0 mm/hr 0.00 in0.0 mm
03:45 AM 61.2°F16.2°C 54.9°F12.7°C 80% Calm Calm -- 30.24 in1024.0 mb 0.00 in0.0 mm 0.00 in/hr0.0 mm/hr 0.00 in0.0 mm
03:30 AM 61.5°F16.4°C 54.9°F12.7°C 79% Calm Calm -- 30.24 in1024.0 mb 0.00 in0.0 mm 0.00 in/hr0.0 mm/hr 0.00 in0.0 mm
03:15 AM 62.1°F16.7°C 55.2°F12.9°C 78% Calm Calm -- 30.24 in1024.0 mb 0.00 in0.0 mm 0.00 in/hr0.0 mm/hr 0.00 in0.0 mm
03:00 AM 62.4°F16.9°C 55.6°F13.1°C 78% Calm Calm -- 30.25 in1024.4 mb 0.00 in0.0 mm 0.00 in/hr0.0 mm/hr 0.00 in0.0 mm
02:45 AM 62.8°F17.1°C 56.1°F13.4°C 79% Calm Calm -- 30.25 in1024.4 mb 0.00 in0.0 mm 0.00 in/hr0.0 mm/hr 0.00 in0.0 mm
02:00 AM 62.8°F17.1°C 55.8°F13.2°C 78% Calm Calm 2.0 mph3.2 kmh 30.26 in1024.7 mb 0.00 in0.0 mm 0.00 in/hr0.0 mm/hr 0.00 in0.0 mm
12:45 AM 64.2°F17.9°C 56.8°F13.8°C 77% 1.0 mph SE1.6 kmh SE 2.0 mph3.2 kmh 30.28 in1025.4 mb 0.00 in0.0 mm 0.00 in/hr0.0 mm/hr 0.00 in0.0 mm
12:30 AM 64.2°F17.9°C 57.0°F13.9°C 77% 1.0 mph SSE1.6 kmh SSE 7.0 mph11.3 kmh 30.29 in1025.7 mb 0.00 in0.0 mm 0.00 in/hr0.0 mm/hr 0.00 in0.0 mm
12:00 AM 63.9°F17.7°C 57.2°F14.0°C 79% 1.0 mph SSE1.6 kmh SSE 2.0 mph3.2 kmh 30.30 in1026.1 mb 0.00 in0.0 mm 0.00 in/hr0.0 mm/hr 0.00 in0.0 mm